Time;durP1;ratioP1;P1;durP2;ratioP2;P2;SDS_P1;SDS_P2;PMS_P1;PMS_P2;Temp;Humidity;BMP_temperature;BMP_pressure;BME280_temperature;BME280_humidity;BME280_pressure;Samples;Min_cycle;Max_cycle;Signal;HPM_P1;HPM_P2
2022/01/29 00:00:10;;;;;;;17.30;7.18;;;6.30;99.90;;;;;;5007491;28;20018;-71
2022/01/29 00:02:36;;;;;;;32.35;9.70;;;6.30;99.90;;;;;;5007277;28;20031;-71
2022/01/29 00:05:02;;;;;;;29.35;9.07;;;6.30;99.90;;;;;;5006998;28;20050;-70
2022/01/29 00:07:28;;;;;;;30.58;10.45;;;6.30;99.90;;;;;;5006900;28;20102;-70
2022/01/29 00:10:01;;;;;;;26.40;10.35;;;6.30;99.90;;;;;;5007260;28;20030;-72
2022/01/29 00:12:27;;;;;;;24.07;9.53;;;6.30;99.90;;;;;;5006338;28;20104;-72
2022/01/29 00:14:53;;;;;;;31.02;10.73;;;6.30;99.90;;;;;;5006325;28;20026;-70
2022/01/29 00:17:19;;;;;;;26.23;10.32;;;6.30;99.90;;;;;;5006085;28;20033;-72
2022/01/29 00:19:45;;;;;;;25.10;9.98;;;6.30;99.90;;;;;;5007336;28;20026;-72
2022/01/29 00:22:11;;;;;;;25.60;8.80;;;6.40;99.90;;;;;;5007192;28;20042;-69
2022/01/29 00:24:37;;;;;;;33.75;11.05;;;6.40;99.90;;;;;;5006749;28;20031;-70
2022/01/29 00:27:08;;;;;;;25.75;10.73;;;6.30;99.90;;;;;;5006358;28;20576;-69
2022/01/29 00:29:37;;;;;;;25.77;10.63;;;6.40;99.90;;;;;;4986397;28;20023;-69
2022/01/29 00:32:04;;;;;;;38.70;10.25;;;6.60;99.90;;;;;;4998920;28;20847;-70
2022/01/29 00:34:29;;;;;;;32.25;11.48;;;6.50;99.90;;;;;;5006424;28;20080;-70
2022/01/29 00:36:55;;;;;;;28.02;11.45;;;6.40;99.90;;;;;;5007139;28;20058;-71
2022/01/29 00:39:22;;;;;;;36.08;11.65;;;6.40;99.90;;;;;;5006296;28;20089;-72
2022/01/29 00:41:48;;;;;;;35.90;12.25;;;6.50;99.90;;;;;;4988776;28;20399;-71
2022/01/29 00:44:14;;;;;;;22.13;9.23;;;6.50;99.90;;;;;;5006307;28;20054;-71
2022/01/29 00:46:44;;;;;;;34.05;11.20;;;6.50;99.90;;;;;;5006859;28;20035;-70
2022/01/29 00:49:12;;;;;;;36.35;12.60;;;6.50;99.90;;;;;;5006781;28;20035;-71
2022/01/29 00:51:39;;;;;;;28.30;11.88;;;6.50;99.90;;;;;;5006876;28;20030;-70
2022/01/29 00:54:05;;;;;;;33.20;11.45;;;6.50;99.90;;;;;;4989073;28;20050;-71
2022/01/29 00:56:31;;;;;;;20.70;9.77;;;6.50;99.90;;;;;;5006164;28;20076;-71
2022/01/29 00:58:57;;;;;;;43.75;14.05;;;6.50;99.90;;;;;;4988564;28;20025;-70
2022/01/29 01:01:33;;;;;;;38.95;13.65;;;6.50;99.90;;;;;;5006302;28;20026;-74
2022/01/29 01:03:58;;;;;;;29.88;13.60;;;6.40;99.90;;;;;;5006259;28;20102;-73
2022/01/29 01:06:24;;;;;;;50.70;14.65;;;6.50;99.90;;;;;;5006363;28;20042;-70
2022/01/29 01:08:49;;;;;;;40.78;13.60;;;6.40;99.90;;;;;;5005949;28;20109;-71
2022/01/29 01:11:16;;;;;;;33.65;14.52;;;6.30;99.90;;;;;;4988589;28;20033;-73
2022/01/29 01:13:41;;;;;;;35.13;14.68;;;6.30;99.90;;;;;;5006585;28;20024;-75
2022/01/29 01:16:09;;;;;;;42.88;14.07;;;6.30;99.90;;;;;;5006523;28;20155;-74
2022/01/29 01:18:34;;;;;;;36.58;13.07;;;6.30;99.90;;;;;;5006250;28;20063;-72
2022/01/29 01:21:00;;;;;;;34.40;15.73;;;6.30;99.90;;;;;;4988016;28;20030;-73
2022/01/29 01:23:25;;;;;;;36.88;14.55;;;6.20;99.90;;;;;;5005781;28;20033;-74
2022/01/29 01:25:51;;;;;;;37.80;14.45;;;6.30;99.90;;;;;;5005316;28;20022;-73
2022/01/29 01:28:16;;;;;;;33.10;13.85;;;6.30;99.90;;;;;;5006000;28;20045;-71
2022/01/29 01:30:43;;;;;;;35.15;12.25;;;6.20;99.90;;;;;;5006198;28;20023;-73
2022/01/29 01:33:08;;;;;;;41.55;12.05;;;6.20;99.90;;;;;;4988195;28;20029;-73
2022/01/29 01:35:43;;;;;;;48.80;13.73;;;6.20;99.90;;;;;;5005572;28;20026;-75
2022/01/29 01:38:12;;;;;;;30.17;11.48;;;6.10;99.90;;;;;;5005057;28;20435;-72
2022/01/29 01:40:41;;;;;;;38.50;12.45;;;6.20;99.90;;;;;;5006015;28;20086;-73
2022/01/29 01:43:06;;;;;;;36.55;14.35;;;6.10;99.90;;;;;;5005516;28;20030;-73
2022/01/29 01:45:32;;;;;;;39.13;15.25;;;6.10;99.90;;;;;;5005949;28;20030;-74
2022/01/29 01:47:58;;;;;;;29.42;13.07;;;6.10;99.90;;;;;;4988294;28;20053;-73
2022/01/29 01:50:24;;;;;;;38.42;14.73;;;6.10;99.90;;;;;;5005379;28;20032;-75
2022/01/29 01:52:51;;;;;;;44.42;15.23;;;6.10;99.90;;;;;;5005378;28;20030;-75
2022/01/29 01:55:17;;;;;;;47.22;14.55;;;6.10;99.90;;;;;;4985873;28;20102;-74
2022/01/29 01:57:43;;;;;;;39.42;14.68;;;6.20;99.90;;;;;;4986165;28;20050;-74
2022/01/29 02:00:12;;;;;;;40.80;13.90;;;6.10;99.90;;;;;;4986040;28;20027;-75
2022/01/29 02:02:37;;;;;;;49.53;16.38;;;6.00;99.90;;;;;;4986108;28;20043;-74
2022/01/29 02:05:03;;;;;;;35.63;12.63;;;6.00;99.90;;;;;;4985970;28;20086;-75
2022/01/29 02:07:30;;;;;;;41.83;16.63;;;6.10;99.90;;;;;;4985883;28;20030;-73
2022/01/29 02:09:55;;;;;;;48.47;14.85;;;6.00;99.90;;;;;;4985658;28;20031;-75
2022/01/29 02:12:25;;;;;;;43.35;14.70;;;6.00;99.90;;;;;;4985940;28;20508;-74
2022/01/29 02:14:51;;;;;;;40.20;15.00;;;6.00;99.90;;;;;;4985707;28;20027;-73
2022/01/29 02:17:17;;;;;;;37.83;13.70;;;6.00;99.90;;;;;;4968038;28;20027;-74
2022/01/29 02:19:43;;;;;;;41.95;14.95;;;6.00;99.90;;;;;;4968588;28;20026;-74
2022/01/29 02:22:08;;;;;;;49.35;16.50;;;6.00;99.90;;;;;;4984151;28;20050;-73
2022/01/29 02:24:34;;;;;;;54.40;14.80;;;6.00;99.90;;;;;;4977240;28;20038;-73
2022/01/29 02:27:00;;;;;;;46.40;15.80;;;6.10;99.90;;;;;;4985490;28;20027;-73
2022/01/29 02:29:25;;;;;;;48.03;13.60;;;6.20;99.90;;;;;;4985368;28;20027;-73
2022/01/29 02:31:57;;;;;;;46.03;15.50;;;6.00;99.90;;;;;;4985623;28;20082;-71
2022/01/29 02:34:24;;;;;;;50.28;14.73;;;6.10;99.90;;;;;;4985200;28;20031;-74
2022/01/29 02:36:52;;;;;;;53.22;15.73;;;6.00;99.90;;;;;;4985968;28;20031;-73
2022/01/29 02:39:19;;;;;;;55.00;15.70;;;6.10;99.90;;;;;;4967567;28;20026;-73
2022/01/29 02:41:45;;;;;;;40.28;13.23;;;6.10;99.90;;;;;;4967623;28;20034;-72
2022/01/29 02:44:15;;;;;;;48.22;16.98;;;6.10;99.90;;;;;;4984591;28;20034;-75
2022/01/29 02:49:21;;;;;;;44.08;14.63;;;6.10;99.90;;;;;;4978365;28;20439;-71
2022/01/29 02:51:57;;;;;;;46.72;15.80;;;6.10;99.90;;;;;;4985504;28;20062;-74
2022/01/29 02:54:24;;;;;;;48.22;16.17;;;6.10;99.90;;;;;;4985074;28;20093;-72
2022/01/29 02:56:50;;;;;;;53.33;17.42;;;6.10;99.90;;;;;;4985055;28;20027;-71
2022/01/29 02:59:16;;;;;;;45.65;16.38;;;6.10;99.90;;;;;;4985151;28;20495;-72
2022/01/29 03:01:43;;;;;;;56.35;17.48;;;6.10;99.90;;;;;;4968014;28;20053;-73
2022/01/29 03:04:09;;;;;;;62.60;15.05;;;6.10;99.90;;;;;;4986283;28;20027;-73
2022/01/29 03:06:35;;;;;;;41.85;15.80;;;6.10;99.90;;;;;;4989442;28;20022;-72
2022/01/29 03:09:03;;;;;;;52.90;16.02;;;6.10;99.90;;;;;;4971671;28;20034;-72
2022/01/29 03:11:29;;;;;;;48.78;16.50;;;6.10;99.90;;;;;;4988956;28;20030;-70
2022/01/29 03:13:55;;;;;;;35.30;12.60;;;6.10;99.90;;;;;;4988908;28;20034;-75
2022/01/29 03:16:20;;;;;;;33.70;11.82;;;6.10;99.90;;;;;;4989080;28;20030;-75
2022/01/29 03:18:46;;;;;;;38.50;15.32;;;6.10;99.90;;;;;;4971214;28;20023;-76
2022/01/29 03:21:12;;;;;;;38.00;13.98;;;6.20;99.90;;;;;;4988991;28;20034;-73
2022/01/29 03:23:38;;;;;;;42.72;15.23;;;6.20;99.90;;;;;;4971333;28;20510;-74
2022/01/29 03:26:04;;;;;;;31.75;11.85;;;6.20;99.90;;;;;;4989000;28;20054;-75
2022/01/29 03:28:31;;;;;;;44.00;14.85;;;6.20;99.90;;;;;;4971085;28;20054;-74
2022/01/29 03:30:56;;;;;;;48.47;15.80;;;6.20;99.90;;;;;;4988777;28;20023;-72
2022/01/29 03:33:23;;;;;;;43.80;14.23;;;6.10;99.90;;;;;;4987275;28;20045;-71
2022/01/29 03:35:50;;;;;;;44.92;13.57;;;6.30;99.90;;;;;;4988882;28;20027;-71
2022/01/29 03:38:16;;;;;;;45.40;15.55;;;6.20;99.90;;;;;;4988251;28;20058;-74
2022/01/29 03:40:45;;;;;;;38.03;13.13;;;6.30;99.90;;;;;;4988466;28;20527;-74
2022/01/29 03:43:14;;;;;;;31.27;14.07;;;6.20;99.90;;;;;;4988327;28;20062;-73
2022/01/29 03:45:40;;;;;;;53.78;16.75;;;6.20;99.90;;;;;;4988396;28;20030;-73
2022/01/29 03:48:10;;;;;;;38.95;15.20;;;6.30;99.90;;;;;;4988405;28;20105;-72
2022/01/29 03:50:36;;;;;;;40.65;14.68;;;6.20;99.90;;;;;;4988961;28;20030;-72
2022/01/29 03:53:02;;;;;;;40.88;12.40;;;6.30;99.90;;;;;;4987478;28;20034;-72
2022/01/29 03:55:29;;;;;;;39.95;13.00;;;6.20;99.90;;;;;;4987329;28;20069;-70
2022/01/29 03:57:54;;;;;;;38.97;12.90;;;6.30;99.90;;;;;;4988147;28;20042;-72
2022/01/29 04:00:20;;;;;;;36.47;13.10;;;6.30;99.90;;;;;;4988080;28;20027;-70
2022/01/29 04:02:46;;;;;;;34.40;12.32;;;6.30;99.90;;;;;;4987546;28;20053;-72
2022/01/29 04:05:11;;;;;;;35.75;12.68;;;6.30;99.90;;;;;;4970392;28;20038;-71
2022/01/29 04:07:40;;;;;;;46.33;12.75;;;6.30;99.90;;;;;;4988172;28;20026;-72
2022/01/29 04:10:09;;;;;;;39.08;13.60;;;6.30;99.90;;;;;;4970362;28;20396;-70
2022/01/29 04:12:40;;;;;;;42.13;14.65;;;6.30;99.90;;;;;;4987670;28;20023;-69
2022/01/29 04:15:12;;;;;;;34.67;11.65;;;6.40;99.90;;;;;;4987374;28;20049;-72
2022/01/29 04:17:38;;;;;;;44.63;13.95;;;6.40;99.90;;;;;;4968966;28;20081;-72
2022/01/29 04:20:04;;;;;;;37.78;12.82;;;6.40;99.90;;;;;;4987227;28;20034;-70
2022/01/29 04:22:30;;;;;;;38.20;12.73;;;6.40;99.90;;;;;;4987213;28;20035;-71
2022/01/29 04:24:55;;;;;;;31.95;11.35;;;6.50;99.90;;;;;;4987524;28;20034;-71
2022/01/29 04:27:31;;;;;;;43.22;14.32;;;6.50;99.90;;;;;;4986993;28;20027;-71
2022/01/29 04:30:00;;;;;;;36.05;12.30;;;6.50;99.90;;;;;;4987626;28;20050;-74
2022/01/29 04:32:54;;;;;;;27.95;11.23;;;6.50;99.90;;;;;;4987592;28;20058;-70
2022/01/29 04:35:14;;;;;;;32.17;12.45;;;6.50;99.90;;;;;;4986812;28;20030;-72
2022/01/29 04:37:41;;;;;;;34.35;11.90;;;6.50;99.90;;;;;;4987365;28;20030;-70
2022/01/29 04:40:10;;;;;;;36.92;12.73;;;6.50;99.90;;;;;;4987556;28;20041;-73
2022/01/29 04:42:37;;;;;;;34.97;12.52;;;6.50;99.90;;;;;;4987138;28;20041;-71
2022/01/29 04:45:03;;;;;;;42.80;13.25;;;6.50;99.90;;;;;;4987178;28;20027;-73
2022/01/29 04:47:29;;;;;;;47.17;14.65;;;6.50;99.90;;;;;;4986594;28;20046;-72
2022/01/29 04:49:54;;;;;;;31.23;11.57;;;6.60;99.90;;;;;;4969783;28;20023;-70
2022/01/29 04:52:20;;;;;;;31.60;12.82;;;6.60;99.90;;;;;;4987450;28;20122;-71
2022/01/29 04:54:45;;;;;;;35.88;13.60;;;6.60;99.90;;;;;;4986268;28;20051;-71
2022/01/29 04:57:14;;;;;;;38.97;14.05;;;6.60;99.90;;;;;;4986967;28;20038;-70
2022/01/29 04:59:40;;;;;;;39.83;14.57;;;6.60;99.90;;;;;;4987328;28;20041;-71
2022/01/29 05:02:08;;;;;;;39.72;12.55;;;6.70;99.90;;;;;;4986928;28;20090;-72
2022/01/29 05:04:33;;;;;;;33.45;11.90;;;6.70;99.90;;;;;;4986864;28;20031;-73
2022/01/29 05:07:00;;;;;;;45.70;13.90;;;6.70;99.90;;;;;;4987166;28;20495;-71
2022/01/29 05:09:25;;;;;;;38.40;10.93;;;6.70;99.90;;;;;;4986711;28;20023;-72
2022/01/29 05:11:53;;;;;;;37.75;12.88;;;6.70;99.90;;;;;;4987087;28;20526;-71
2022/01/29 05:14:41;;;;;;;41.60;12.63;;;6.70;99.90;;;;;;4986627;28;20027;-70
2022/01/29 05:28:02;;;;;;;39.58;11.50;;;6.80;99.90;;;;;;4986488;28;20113;-71
2022/01/29 05:30:28;;;;;;;41.83;12.13;;;6.80;99.90;;;;;;4969236;28;20023;-74
2022/01/29 05:32:53;;;;;;;38.63;12.13;;;6.90;99.90;;;;;;4986680;28;20031;-71
2022/01/29 05:35:20;;;;;;;44.45;14.65;;;6.90;99.90;;;;;;4986076;28;20062;-71
2022/01/29 05:37:49;;;;;;;30.95;9.95;;;6.90;99.90;;;;;;4968365;28;20109;-72
2022/01/29 05:40:15;;;;;;;30.67;12.00;;;6.90;99.90;;;;;;4986368;28;20030;-71
2022/01/29 05:42:41;;;;;;;34.70;12.23;;;6.90;99.90;;;;;;4968643;28;20038;-73
2022/01/29 05:45:12;;;;;;;41.80;12.45;;;6.90;99.90;;;;;;4986548;28;20125;-71
2022/01/29 05:47:38;;;;;;;50.30;11.73;;;7.00;99.90;;;;;;4986566;28;20031;-73
2022/01/29 05:50:04;;;;;;;41.58;11.90;;;7.00;99.90;;;;;;4986187;28;20058;-71
2022/01/29 05:52:30;;;;;;;36.28;12.75;;;7.00;99.90;;;;;;4985414;28;20479;-71
2022/01/29 05:54:59;;;;;;;35.20;13.48;;;7.00;99.90;;;;;;4985814;28;20102;-71
2022/01/29 05:57:24;;;;;;;39.33;12.68;;;7.00;99.90;;;;;;4968713;28;20027;-70
2022/01/29 05:59:50;;;;;;;33.75;11.55;;;7.10;99.90;;;;;;4986277;28;20037;-72
2022/01/29 06:02:15;;;;;;;33.47;11.95;;;7.20;99.90;;;;;;4968300;28;20042;-71
2022/01/29 06:04:41;;;;;;;33.20;11.95;;;7.10;99.90;;;;;;4985672;28;20031;-70
2022/01/29 06:07:10;;;;;;;33.67;11.52;;;7.10;99.90;;;;;;4985868;28;20098;-73
2022/01/29 06:09:39;;;;;;;38.72;12.65;;;7.10;99.90;;;;;;4985305;28;20046;-71
2022/01/29 06:12:06;;;;;;;30.02;11.60;;;7.10;99.90;;;;;;4985788;28;20026;-71
2022/01/29 06:14:31;;;;;;;46.58;13.00;;;7.10;99.90;;;;;;4984082;28;20037;-71
2022/01/29 06:16:57;;;;;;;28.30;10.95;;;7.10;99.90;;;;;;4985696;28;20035;-70
2022/01/29 06:19:23;;;;;;;27.17;10.73;;;7.30;99.90;;;;;;4985706;28;20490;-70
2022/01/29 06:21:48;;;;;;;34.65;10.50;;;7.10;99.90;;;;;;4985723;28;20116;-71
2022/01/29 06:24:15;;;;;;;30.00;9.02;;;7.20;99.90;;;;;;4985722;28;20027;-74
2022/01/29 06:26:40;;;;;;;35.97;11.98;;;7.20;99.90;;;;;;4985788;28;20041;-73
2022/01/29 06:29:06;;;;;;;31.90;10.27;;;7.20;99.90;;;;;;4985814;28;20039;-74
2022/01/29 06:31:31;;;;;;;42.90;12.48;;;7.20;99.90;;;;;;4985733;28;20088;-73
2022/01/29 06:33:58;;;;;;;35.75;10.70;;;7.20;99.90;;;;;;4985646;28;20030;-71
2022/01/29 06:36:24;;;;;;;32.00;10.77;;;7.20;99.90;;;;;;4985413;28;20034;-74
2022/01/29 06:38:49;;;;;;;25.80;8.93;;;7.20;99.90;;;;;;4985511;28;20027;-71
2022/01/29 06:41:15;;;;;;;23.92;10.10;;;7.20;99.90;;;;;;4989535;28;20038;-72
2022/01/29 06:43:41;;;;;;;33.25;11.70;;;7.20;99.90;;;;;;4989343;28;20019;-72
2022/01/29 06:46:16;;;;;;;25.00;9.38;;;7.10;99.90;;;;;;4989543;28;20082;-71
2022/01/29 06:48:43;;;;;;;35.00;11.65;;;7.20;99.90;;;;;;4989335;28;20035;-73
2022/01/29 06:51:09;;;;;;;26.75;9.15;;;7.20;99.90;;;;;;4975712;28;20798;-72
2022/01/29 06:53:34;;;;;;;31.35;10.60;;;7.20;99.90;;;;;;4979323;28;20094;-73
2022/01/29 06:56:00;;;;;;;14.88;7.63;;;7.20;99.90;;;;;;4960472;28;20059;-72
2022/01/29 06:58:25;;;;;;;42.42;10.57;;;7.20;99.90;;;;;;4980372;28;20045;-73
2022/01/29 07:00:51;;;;;;;32.13;10.85;;;7.20;99.90;;;;;;4984830;28;20031;-74
2022/01/29 07:03:16;;;;;;;38.60;9.80;;;7.20;99.90;;;;;;4982549;28;20125;-74
2022/01/29 07:05:42;;;;;;;34.55;10.77;;;7.20;99.90;;;;;;4983394;28;20415;-74
2022/01/29 07:08:11;;;;;;;36.58;8.77;;;7.20;99.90;;;;;;4980383;28;20039;-72
2022/01/29 07:10:37;;;;;;;23.20;8.27;;;7.20;99.90;;;;;;4988357;28;20081;-75
2022/01/29 07:13:05;;;;;;;25.67;9.07;;;7.20;99.90;;;;;;4971516;28;20761;-75
2022/01/29 07:15:30;;;;;;;20.77;7.78;;;7.20;99.90;;;;;;4988854;28;20035;-73
2022/01/29 07:17:56;;;;;;;26.52;8.48;;;7.20;99.90;;;;;;4988867;28;20073;-72
2022/01/29 07:20:21;;;;;;;19.65;6.63;;;7.30;99.90;;;;;;4988903;28;20115;-73
2022/01/29 07:22:47;;;;;;;23.77;8.40;;;7.20;99.90;;;;;;4989259;28;20039;-72
2022/01/29 07:25:13;;;;;;;23.50;8.25;;;7.40;99.90;;;;;;4987481;28;20057;-73
2022/01/29 07:27:39;;;;;;;16.20;6.93;;;7.30;99.90;;;;;;4968067;28;20031;-75
2022/01/29 07:30:05;;;;;;;14.85;7.20;;;7.40;99.90;;;;;;4986893;28;20039;-72
2022/01/29 07:32:31;;;;;;;19.17;6.93;;;7.30;99.90;;;;;;4968332;28;20023;-75
2022/01/29 07:34:59;;;;;;;15.93;7.15;;;7.30;99.90;;;;;;4968024;28;20128;-75
2022/01/29 07:37:25;;;;;;;21.25;7.00;;;7.30;99.90;;;;;;4977878;28;20046;-72
2022/01/29 07:39:50;;;;;;;21.95;6.28;;;7.30;99.90;;;;;;4978409;28;20042;-73
2022/01/29 07:42:17;;;;;;;21.20;6.30;;;7.30;99.90;;;;;;4987694;28;20062;-74
2022/01/29 07:44:42;;;;;;;16.75;6.07;;;7.40;99.90;;;;;;4987684;28;20027;-73
2022/01/29 07:47:08;;;;;;;18.67;6.25;;;7.40;99.90;;;;;;4988636;28;20027;-75
2022/01/29 07:49:34;;;;;;;19.05;6.90;;;7.40;99.90;;;;;;4988651;28;20058;-75
2022/01/29 07:52:00;;;;;;;19.88;6.93;;;7.40;99.90;;;;;;4970618;28;20031;-73
2022/01/29 07:54:25;;;;;;;13.63;5.32;;;7.40;99.90;;;;;;4970538;28;20053;-73
2022/01/29 07:56:51;;;;;;;16.15;6.03;;;7.50;99.90;;;;;;4979240;28;20070;-73
2022/01/29 07:59:17;;;;;;;12.00;6.40;;;7.50;99.90;;;;;;4969968;28;20027;-75
2022/01/29 08:01:43;;;;;;;15.38;6.80;;;7.50;99.90;;;;;;4986971;28;20046;-74
2022/01/29 08:04:09;;;;;;;12.85;5.45;;;7.50;99.90;;;;;;4988213;28;20035;-76
2022/01/29 08:06:35;;;;;;;12.27;5.57;;;7.50;99.90;;;;;;4987965;28;20023;-75
2022/01/29 08:09:01;;;;;;;16.95;5.30;;;7.50;99.90;;;;;;4970446;28;20494;-74
2022/01/29 08:11:26;;;;;;;15.45;5.50;;;7.50;99.90;;;;;;4970571;28;20042;-73
2022/01/29 08:13:52;;;;;;;11.70;5.13;;;7.50;99.90;;;;;;4987556;28;20022;-73
2022/01/29 08:16:18;;;;;;;11.48;5.50;;;7.50;99.90;;;;;;4986946;28;20031;-73
2022/01/29 08:18:45;;;;;;;19.65;6.38;;;7.50;99.90;;;;;;4988039;28;20031;-76
2022/01/29 08:21:16;;;;;;;13.48;6.30;;;7.50;99.90;;;;;;4987920;28;20023;-74
2022/01/29 08:23:44;;;;;;;21.15;6.65;;;7.60;99.90;;;;;;4970398;28;20030;-72
2022/01/29 08:26:10;;;;;;;14.30;5.38;;;7.60;99.90;;;;;;4987802;28;20046;-74
2022/01/29 08:28:37;;;;;;;14.25;6.10;;;7.60;99.90;;;;;;4987830;28;20099;-72
2022/01/29 08:31:03;;;;;;;13.52;6.55;;;7.60;99.90;;;;;;4987853;28;20098;-73
2022/01/29 08:33:29;;;;;;;23.25;7.40;;;7.60;99.90;;;;;;4988031;28;20035;-74
2022/01/29 08:35:57;;;;;;;17.80;6.95;;;7.70;99.90;;;;;;4987564;28;20033;-72
2022/01/29 08:38:22;;;;;;;10.82;4.65;;;7.60;99.90;;;;;;4987322;28;20023;-74
2022/01/29 08:40:48;;;;;;;18.23;6.43;;;7.70;99.90;;;;;;4987177;28;20086;-72
2022/01/29 08:43:15;;;;;;;11.43;5.85;;;7.70;99.90;;;;;;4987409;28;20480;-73
2022/01/29 08:45:42;;;;;;;19.75;8.32;;;7.70;99.90;;;;;;4987520;28;20109;-73
2022/01/29 08:48:08;;;;;;;18.63;5.95;;;7.80;99.90;;;;;;4970128;28;20131;-77
2022/01/29 08:50:34;;;;;;;21.02;6.05;;;7.80;99.90;;;;;;4983469;28;20058;-73
2022/01/29 08:53:00;;;;;;;33.28;6.25;;;7.80;99.90;;;;;;4979932;28;20055;-73
2022/01/29 08:55:25;;;;;;;12.77;5.22;;;7.80;99.90;;;;;;4969130;28;20039;-71
2022/01/29 08:57:52;;;;;;;25.88;8.18;;;7.80;99.90;;;;;;4969193;28;20082;-74
2022/01/29 09:00:18;;;;;;;15.50;7.03;;;7.80;99.90;;;;;;4985432;28;20027;-74
2022/01/29 09:02:44;;;;;;;12.02;5.93;;;7.90;99.90;;;;;;4985232;28;20039;-74
2022/01/29 09:05:12;;;;;;;12.80;6.22;;;7.90;99.90;;;;;;4987271;28;20031;-75
2022/01/29 09:07:39;;;;;;;23.90;6.32;;;7.90;99.90;;;;;;4968358;28;20070;-74
2022/01/29 09:10:05;;;;;;;18.60;6.43;;;8.00;99.90;;;;;;4983694;28;20035;-74
2022/01/29 09:12:32;;;;;;;15.80;6.53;;;7.90;99.90;;;;;;4986001;28;20058;-72
2022/01/29 09:14:57;;;;;;;15.15;6.10;;;8.00;99.90;;;;;;4986586;28;20035;-74
2022/01/29 09:17:23;;;;;;;29.90;6.05;;;8.00;99.90;;;;;;4983202;28;20519;-76
2022/01/29 09:19:55;;;;;;;22.35;6.80;;;8.00;99.90;;;;;;4977067;28;20031;-72
2022/01/29 09:22:21;;;;;;;15.63;5.57;;;8.00;99.90;;;;;;4996122;28;20045;-73
2022/01/29 09:24:46;;;;;;;12.98;5.80;;;8.00;99.90;;;;;;4981233;28;20027;-75
2022/01/29 09:27:12;;;;;;;16.02;6.22;;;8.10;99.90;;;;;;4993052;28;20038;-76
2022/01/29 09:29:39;;;;;;;13.73;5.68;;;8.10;99.90;;;;;;4985811;28;20038;-76
2022/01/29 09:32:06;;;;;;;11.93;5.47;;;8.10;99.90;;;;;;4986424;28;20531;-74
2022/01/29 09:34:32;;;;;;;9.90;4.90;;;8.20;99.90;;;;;;4985903;28;20031;-75
2022/01/29 09:36:59;;;;;;;9.95;4.47;;;8.20;99.90;;;;;;4986584;28;20035;-77
2022/01/29 09:39:25;;;;;;;9.23;4.07;;;8.20;99.90;;;;;;4985694;28;20086;-74
2022/01/29 09:41:50;;;;;;;10.57;4.82;;;8.20;99.90;;;;;;4984732;28;20051;-74
2022/01/29 09:44:16;;;;;;;15.27;4.82;;;8.20;99.90;;;;;;4996834;28;20027;-75
2022/01/29 09:46:44;;;;;;;14.73;3.92;;;8.20;99.90;;;;;;4981518;28;20031;-77
2022/01/29 09:49:11;;;;;;;13.30;5.32;;;8.20;99.90;;;;;;4978573;28;20027;-75
2022/01/29 09:51:41;;;;;;;15.60;4.55;;;8.20;99.90;;;;;;4984764;28;20034;-74
2022/01/29 09:54:09;;;;;;;13.02;4.15;;;8.20;99.90;;;;;;4968329;28;20062;-78
2022/01/29 09:56:34;;;;;;;7.05;3.58;;;8.20;99.90;;;;;;4965521;28;20035;-76
2022/01/29 09:59:00;;;;;;;11.15;4.03;;;8.20;99.90;;;;;;4984056;28;20480;-76
2022/01/29 10:01:25;;;;;;;12.50;4.70;;;8.30;99.90;;;;;;4951651;28;20054;-76
2022/01/29 10:04:03;;;;;;;16.25;5.15;;;8.30;99.90;;;;;;4983289;28;20070;-76
2022/01/29 10:06:28;;;;;;;14.18;6.30;;;8.30;99.90;;;;;;4979726;28;20448;-73
2022/01/29 10:08:54;;;;;;;13.65;5.38;;;8.30;99.90;;;;;;4986848;28;20026;-74
2022/01/29 10:11:23;;;;;;;8.93;5.25;;;8.30;99.90;;;;;;4985683;28;20034;-73
2022/01/29 10:13:50;;;;;;;14.23;5.40;;;8.40;99.90;;;;;;4967484;28;20069;-73
2022/01/29 10:16:25;;;;;;;12.13;5.25;;;8.40;99.90;;;;;;4985855;28;20033;-76
2022/01/29 10:19:05;;;;;;;12.57;4.65;;;8.40;99.90;;;;;;4986227;28;20031;-74
2022/01/29 10:21:38;;;;;;;19.05;5.55;;;8.40;99.90;;;;;;4990057;28;20042;-74
2022/01/29 10:24:08;;;;;;;22.50;5.63;;;8.50;99.90;;;;;;4984772;28;20039;-73
2022/01/29 10:26:44;;;;;;;11.10;5.28;;;8.40;99.90;;;;;;4968119;28;20018;-76
2022/01/29 10:29:15;;;;;;;10.88;4.63;;;8.40;99.90;;;;;;4985483;28;20034;-72
2022/01/29 10:31:42;;;;;;;17.50;6.40;;;8.40;99.90;;;;;;4985188;28;20027;-75
2022/01/29 10:34:20;;;;;;;9.32;4.93;;;8.40;99.90;;;;;;4985687;28;20023;-73
2022/01/29 10:37:15;;;;;;;14.32;5.68;;;8.40;99.90;;;;;;4985597;28;20038;-73
2022/01/29 10:39:49;;;;;;;13.50;4.65;;;8.40;99.90;;;;;;4985704;28;20034;-74
2022/01/29 10:42:21;;;;;;;23.30;5.47;;;8.50;99.90;;;;;;4983769;28;20093;-71
2022/01/29 10:44:50;;;;;;;18.77;6.47;;;8.50;99.90;;;;;;4970832;28;20076;-72
2022/01/29 10:47:15;;;;;;;11.55;5.20;;;8.50;99.90;;;;;;4985245;28;20086;-72
2022/01/29 10:49:59;;;;;;;17.60;6.13;;;8.50;99.90;;;;;;4985296;28;20027;-77
2022/01/29 10:52:28;;;;;;;12.80;5.28;;;8.50;99.90;;;;;;4984146;28;20034;-72
2022/01/29 10:55:00;;;;;;;15.35;5.30;;;8.50;99.90;;;;;;4983828;28;20050;-73
2022/01/29 10:57:44;;;;;;;11.20;5.65;;;8.60;99.90;;;;;;4967972;28;20078;-70
2022/01/29 11:00:21;;;;;;;11.60;4.75;;;8.60;99.90;;;;;;4967988;28;20030;-75
2022/01/29 11:02:48;;;;;;;14.10;4.72;;;8.60;99.90;;;;;;4985024;28;20103;-75
2022/01/29 11:05:14;;;;;;;12.82;5.20;;;8.70;99.90;;;;;;4968133;28;20031;-73
2022/01/29 11:07:50;;;;;;;14.07;4.30;;;8.70;99.90;;;;;;4984770;28;20094;-74
2022/01/29 11:10:17;;;;;;;8.98;3.25;;;8.70;99.90;;;;;;4985191;28;20055;-72
2022/01/29 11:12:45;;;;;;;10.32;4.25;;;8.70;99.90;;;;;;4985576;28;20047;-72
2022/01/29 11:15:19;;;;;;;7.00;3.60;;;8.80;99.90;;;;;;4984471;28;20031;-72
2022/01/29 11:17:49;;;;;;;9.45;4.22;;;8.80;99.90;;;;;;4983098;28;20063;-74
2022/01/29 11:20:17;;;;;;;9.45;3.88;;;8.80;99.90;;;;;;4980279;28;20022;-74
2022/01/29 11:22:49;;;;;;;18.70;5.35;;;8.80;99.90;;;;;;4983783;28;20121;-74
2022/01/29 11:25:22;;;;;;;18.13;4.57;;;8.80;99.90;;;;;;4979237;28;20038;-73
2022/01/29 11:27:47;;;;;;;14.05;3.90;;;8.90;99.90;;;;;;4989066;28;20078;-76
2022/01/29 11:30:15;;;;;;;5.13;2.90;;;8.90;99.90;;;;;;4990366;28;20427;-74
2022/01/29 11:32:46;;;;;;;9.45;3.88;;;8.90;99.90;;;;;;4971379;28;20391;-74
2022/01/29 11:35:21;;;;;;;8.80;4.03;;;8.90;99.90;;;;;;4987840;28;20035;-74
2022/01/29 11:37:54;;;;;;;8.85;3.38;;;8.90;99.90;;;;;;4989047;28;20027;-73
2022/01/29 11:40:27;;;;;;;6.53;3.30;;;9.00;99.90;;;;;;4988569;28;20027;-73
2022/01/29 11:43:09;;;;;;;7.43;3.27;;;9.00;99.90;;;;;;4987060;28;20043;-74
2022/01/29 11:45:44;;;;;;;4.97;2.67;;;9.00;99.90;;;;;;4987529;28;20049;-72
2022/01/29 11:48:25;;;;;;;13.38;3.53;;;9.10;99.90;;;;;;4985943;28;20103;-73
2022/01/29 11:50:59;;;;;;;10.52;4.30;;;9.10;99.90;;;;;;4988257;28;20038;-74
2022/01/29 11:53:45;;;;;;;8.43;3.92;;;9.20;99.90;;;;;;4986601;28;20038;-73
2022/01/29 11:56:38;;;;;;;10.52;4.28;;;9.20;99.90;;;;;;4987943;28;20023;-73
2022/01/29 11:59:23;;;;;;;15.10;3.97;;;9.20;99.90;;;;;;4969317;28;20050;-72
2022/01/29 12:01:55;;;;;;;10.98;3.58;;;9.30;99.90;;;;;;4987402;28;20173;-72
2022/01/29 12:04:23;;;;;;;11.32;3.42;;;9.30;99.90;;;;;;4986869;28;20062;-71
2022/01/29 12:07:16;;;;;;;8.70;3.72;;;9.30;99.90;;;;;;4986976;28;20031;-71
2022/01/29 12:09:54;;;;;;;5.72;2.90;;;9.30;99.90;;;;;;4969428;28;20513;-74
2022/01/29 12:12:27;;;;;;;8.40;3.08;;;9.30;99.90;;;;;;4969561;28;20034;-68
2022/01/29 12:14:58;;;;;;;6.63;2.92;;;9.30;99.90;;;;;;4987440;28;20035;-72
2022/01/29 12:17:38;;;;;;;10.45;2.70;;;9.30;99.90;;;;;;4987486;28;20062;-71
2022/01/29 12:20:09;;;;;;;13.32;2.67;;;9.30;99.90;;;;;;4969316;28;20455;-74
2022/01/29 12:22:36;;;;;;;4.53;2.40;;;9.30;99.90;;;;;;4970492;28;20439;-73
2022/01/29 12:25:08;;;;;;;10.30;3.13;;;9.30;99.90;;;;;;4987533;28;20053;-77
2022/01/29 12:27:47;;;;;;;11.35;2.55;;;9.30;99.90;;;;;;4987476;28;20023;-71
2022/01/29 12:30:19;;;;;;;10.00;2.25;;;9.30;99.90;;;;;;4987085;28;20115;-73
2022/01/29 12:33:02;;;;;;;5.72;2.55;;;9.40;99.90;;;;;;4986818;28;20055;-74
2022/01/29 12:35:53;;;;;;;8.43;2.78;;;9.40;99.90;;;;;;4986402;28;20029;-74
2022/01/29 12:38:26;;;;;;;7.13;3.13;;;9.40;99.90;;;;;;4986081;28;20120;-73
2022/01/29 12:41:03;;;;;;;10.43;2.73;;;9.40;99.90;;;;;;4969263;28;20038;-76
2022/01/29 12:43:30;;;;;;;17.27;2.47;;;9.40;99.90;;;;;;4969185;28;20038;-72
2022/01/29 12:46:18;;;;;;;3.80;2.17;;;9.40;99.90;;;;;;4986603;28;20027;-73
2022/01/29 12:49:05;;;;;;;8.93;2.20;;;9.40;99.90;;;;;;4986020;28;20102;-73
2022/01/29 12:51:30;;;;;;;3.22;1.70;;;9.50;99.90;;;;;;4968878;28;20105;-71
2022/01/29 12:53:58;;;;;;;10.88;2.63;;;9.50;99.90;;;;;;4985480;28;20105;-71
2022/01/29 12:56:32;;;;;;;4.15;2.13;;;9.60;99.90;;;;;;4986570;28;20041;-72
2022/01/29 12:59:00;;;;;;;4.65;2.10;;;9.50;99.90;;;;;;4985528;28;20031;-72
2022/01/29 13:01:26;;;;;;;6.15;2.17;;;9.50;99.90;;;;;;4985267;28;20438;-76